sensor_id;sensor_type;location;lat;lon;timestamp;P1;durP1;ratioP1;P2;durP2;ratioP2
14076;SDS011;7114;51.100;13.998;2022-09-09T00:01:35;4.73;;;1.20;;
14076;SDS011;7114;51.100;13.998;2022-09-09T00:04:05;6.03;;;1.60;;
14076;SDS011;7114;51.100;13.998;2022-09-09T00:06:42;5.57;;;1.40;;
14076;SDS011;7114;51.100;13.998;2022-09-09T00:09:11;4.97;;;1.50;;
14076;SDS011;7114;51.100;13.998;2022-09-09T00:11:42;5.85;;;1.50;;
14076;SDS011;7114;51.100;13.998;2022-09-09T00:14:12;6.00;;;1.50;;
14076;SDS011;7114;51.100;13.998;2022-09-09T00:16:42;4.95;;;1.50;;
14076;SDS011;7114;51.100;13.998;2022-09-09T00:19:15;4.90;;;1.30;;
14076;SDS011;7114;51.100;13.998;2022-09-09T00:21:47;7.57;;;1.38;;
14076;SDS011;7114;51.100;13.998;2022-09-09T00:24:23;5.55;;;1.40;;
14076;SDS011;7114;51.100;13.998;2022-09-09T00:26:54;6.60;;;1.30;;
14076;SDS011;7114;51.100;13.998;2022-09-09T00:29:24;6.00;;;1.60;;
14076;SDS011;7114;51.100;13.998;2022-09-09T00:31:56;4.53;;;1.02;;
14076;SDS011;7114;51.100;13.998;2022-09-09T00:34:28;5.50;;;1.33;;
14076;SDS011;7114;51.100;13.998;2022-09-09T00:36:55;5.45;;;1.30;;
14076;SDS011;7114;51.100;13.998;2022-09-09T00:39:25;5.27;;;1.17;;
14076;SDS011;7114;51.100;13.998;2022-09-09T00:42:00;4.88;;;1.30;;
14076;SDS011;7114;51.100;13.998;2022-09-09T00:44:34;5.57;;;1.23;;
14076;SDS011;7114;51.100;13.998;2022-09-09T00:47:04;5.95;;;1.10;;
14076;SDS011;7114;51.100;13.998;2022-09-09T00:49:42;4.97;;;1.17;;
14076;SDS011;7114;51.100;13.998;2022-09-09T00:52:17;4.97;;;1.00;;
14076;SDS011;7114;51.100;13.998;2022-09-09T00:54:51;5.65;;;1.40;;
14076;SDS011;7114;51.100;13.998;2022-09-09T00:57:26;4.85;;;1.20;;
14076;SDS011;7114;51.100;13.998;2022-09-09T00:59:58;5.40;;;1.00;;
14076;SDS011;7114;51.100;13.998;2022-09-09T01:02:43;4.53;;;0.80;;
14076;SDS011;7114;51.100;13.998;2022-09-09T01:05:18;4.47;;;0.90;;
14076;SDS011;7114;51.100;13.998;2022-09-09T01:07:47;5.07;;;0.90;;
14076;SDS011;7114;51.100;13.998;2022-09-09T01:10:18;6.03;;;1.30;;
14076;SDS011;7114;51.100;13.998;2022-09-09T01:12:51;4.32;;;0.77;;
14076;SDS011;7114;51.100;13.998;2022-09-09T01:15:20;5.78;;;1.20;;
14076;SDS011;7114;51.100;13.998;2022-09-09T01:17:51;4.63;;;1.00;;
14076;SDS011;7114;51.100;13.998;2022-09-09T01:20:20;5.80;;;1.10;;
14076;SDS011;7114;51.100;13.998;2022-09-09T01:22:52;5.40;;;0.88;;
14076;SDS011;7114;51.100;13.998;2022-09-09T01:25:28;5.90;;;1.20;;
14076;SDS011;7114;51.100;13.998;2022-09-09T01:27:58;6.60;;;1.05;;
14076;SDS011;7114;51.100;13.998;2022-09-09T01:30:26;5.00;;;1.00;;
14076;SDS011;7114;51.100;13.998;2022-09-09T01:32:54;5.65;;;1.20;;
14076;SDS011;7114;51.100;13.998;2022-09-09T01:35:27;4.90;;;1.05;;
14076;SDS011;7114;51.100;13.998;2022-09-09T01:37:59;6.70;;;1.10;;
14076;SDS011;7114;51.100;13.998;2022-09-09T01:40:25;4.93;;;1.10;;
14076;SDS011;7114;51.100;13.998;2022-09-09T01:42:52;5.27;;;1.00;;
14076;SDS011;7114;51.100;13.998;2022-09-09T01:45:20;4.90;;;1.17;;
14076;SDS011;7114;51.100;13.998;2022-09-09T01:47:47;6.05;;;1.40;;
14076;SDS011;7114;51.100;13.998;2022-09-09T01:50:15;5.15;;;1.13;;
14076;SDS011;7114;51.100;13.998;2022-09-09T01:52:42;7.53;;;1.40;;
14076;SDS011;7114;51.100;13.998;2022-09-09T01:55:10;6.07;;;1.43;;
14076;SDS011;7114;51.100;13.998;2022-09-09T01:57:38;5.13;;;1.20;;
14076;SDS011;7114;51.100;13.998;2022-09-09T02:00:08;5.78;;;1.10;;
14076;SDS011;7114;51.100;13.998;2022-09-09T02:02:39;6.20;;;1.35;;
14076;SDS011;7114;51.100;13.998;2022-09-09T02:05:22;5.38;;;1.10;;
14076;SDS011;7114;51.100;13.998;2022-09-09T02:07:55;6.83;;;1.47;;
14076;SDS011;7114;51.100;13.998;2022-09-09T02:10:28;4.80;;;1.00;;
14076;SDS011;7114;51.100;13.998;2022-09-09T02:12:58;4.93;;;1.17;;
14076;SDS011;7114;51.100;13.998;2022-09-09T02:15:29;5.57;;;1.00;;
14076;SDS011;7114;51.100;13.998;2022-09-09T02:17:59;7.63;;;1.10;;
14076;SDS011;7114;51.100;13.998;2022-09-09T02:20:27;5.70;;;1.10;;
14076;SDS011;7114;51.100;13.998;2022-09-09T02:22:57;5.03;;;1.20;;
14076;SDS011;7114;51.100;13.998;2022-09-09T02:25:25;8.90;;;1.50;;
14076;SDS011;7114;51.100;13.998;2022-09-09T02:27:52;4.70;;;1.10;;
14076;SDS011;7114;51.100;13.998;2022-09-09T02:30:19;5.63;;;1.20;;
14076;SDS011;7114;51.100;13.998;2022-09-09T02:32:46;5.43;;;1.20;;
14076;SDS011;7114;51.100;13.998;2022-09-09T02:35:17;5.63;;;1.33;;
14076;SDS011;7114;51.100;13.998;2022-09-09T02:37:46;6.05;;;1.27;;
14076;SDS011;7114;51.100;13.998;2022-09-09T02:40:13;5.60;;;1.30;;
14076;SDS011;7114;51.100;13.998;2022-09-09T02:42:41;5.82;;;1.60;;
14076;SDS011;7114;51.100;13.998;2022-09-09T02:45:09;5.67;;;1.40;;
14076;SDS011;7114;51.100;13.998;2022-09-09T02:47:37;5.20;;;1.13;;
14076;SDS011;7114;51.100;13.998;2022-09-09T02:50:08;5.90;;;1.42;;
14076;SDS011;7114;51.100;13.998;2022-09-09T02:52:42;7.78;;;1.70;;
14076;SDS011;7114;51.100;13.998;2022-09-09T02:55:16;6.68;;;1.42;;
14076;SDS011;7114;51.100;13.998;2022-09-09T02:57:44;5.80;;;1.30;;
14076;SDS011;7114;51.100;13.998;2022-09-09T03:00:12;6.35;;;1.33;;
14076;SDS011;7114;51.100;13.998;2022-09-09T03:02:39;5.90;;;1.40;;
14076;SDS011;7114;51.100;13.998;2022-09-09T03:05:07;6.20;;;1.30;;
14076;SDS011;7114;51.100;13.998;2022-09-09T03:07:34;6.47;;;1.23;;
14076;SDS011;7114;51.100;13.998;2022-09-09T03:10:02;6.33;;;1.60;;
14076;SDS011;7114;51.100;13.998;2022-09-09T03:12:29;6.75;;;1.67;;
14076;SDS011;7114;51.100;13.998;2022-09-09T03:14:58;6.78;;;1.42;;
14076;SDS011;7114;51.100;13.998;2022-09-09T03:17:25;6.10;;;1.30;;
14076;SDS011;7114;51.100;13.998;2022-09-09T03:19:53;5.78;;;1.10;;
14076;SDS011;7114;51.100;13.998;2022-09-09T03:22:20;5.30;;;1.40;;
14076;SDS011;7114;51.100;13.998;2022-09-09T03:24:46;6.07;;;1.40;;
14076;SDS011;7114;51.100;13.998;2022-09-09T03:27:14;5.65;;;1.20;;
14076;SDS011;7114;51.100;13.998;2022-09-09T03:29:40;6.38;;;1.35;;
14076;SDS011;7114;51.100;13.998;2022-09-09T03:32:07;5.05;;;1.20;;
14076;SDS011;7114;51.100;13.998;2022-09-09T03:34:35;4.93;;;1.10;;
14076;SDS011;7114;51.100;13.998;2022-09-09T03:37:05;5.22;;;1.23;;
14076;SDS011;7114;51.100;13.998;2022-09-09T03:39:31;5.55;;;0.80;;
14076;SDS011;7114;51.100;13.998;2022-09-09T03:41:58;5.20;;;0.77;;
14076;SDS011;7114;51.100;13.998;2022-09-09T03:44:25;6.18;;;1.00;;
14076;SDS011;7114;51.100;13.998;2022-09-09T03:46:52;5.30;;;0.80;;
14076;SDS011;7114;51.100;13.998;2022-09-09T03:49:18;6.32;;;1.10;;
14076;SDS011;7114;51.100;13.998;2022-09-09T03:51:45;4.68;;;0.80;;
14076;SDS011;7114;51.100;13.998;2022-09-09T03:54:11;4.95;;;0.90;;
14076;SDS011;7114;51.100;13.998;2022-09-09T03:56:37;5.22;;;0.80;;
14076;SDS011;7114;51.100;13.998;2022-09-09T03:59:06;5.03;;;0.90;;
14076;SDS011;7114;51.100;13.998;2022-09-09T04:01:34;4.53;;;1.00;;
14076;SDS011;7114;51.100;13.998;2022-09-09T04:04:01;4.93;;;0.90;;
14076;SDS011;7114;51.100;13.998;2022-09-09T04:06:28;5.32;;;1.00;;
14076;SDS011;7114;51.100;13.998;2022-09-09T04:08:54;6.43;;;0.90;;
14076;SDS011;7114;51.100;13.998;2022-09-09T04:11:21;5.03;;;0.90;;
14076;SDS011;7114;51.100;13.998;2022-09-09T04:13:47;4.30;;;0.80;;
14076;SDS011;7114;51.100;13.998;2022-09-09T04:16:14;4.50;;;0.93;;
14076;SDS011;7114;51.100;13.998;2022-09-09T04:18:42;4.68;;;0.80;;
14076;SDS011;7114;51.100;13.998;2022-09-09T04:21:08;5.80;;;0.95;;
14076;SDS011;7114;51.100;13.998;2022-09-09T04:23:37;5.13;;;0.93;;
14076;SDS011;7114;51.100;13.998;2022-09-09T04:26:03;5.45;;;0.95;;
14076;SDS011;7114;51.100;13.998;2022-09-09T04:28:31;5.13;;;1.20;;
14076;SDS011;7114;51.100;13.998;2022-09-09T04:31:03;5.70;;;1.17;;
14076;SDS011;7114;51.100;13.998;2022-09-09T04:33:30;4.25;;;0.77;;
14076;SDS011;7114;51.100;13.998;2022-09-09T04:35:58;5.10;;;0.90;;
14076;SDS011;7114;51.100;13.998;2022-09-09T04:38:24;5.22;;;0.88;;
14076;SDS011;7114;51.100;13.998;2022-09-09T04:40:51;8.98;;;0.98;;
14076;SDS011;7114;51.100;13.998;2022-09-09T04:43:19;4.75;;;0.90;;
14076;SDS011;7114;51.100;13.998;2022-09-09T04:45:46;4.80;;;0.82;;
14076;SDS011;7114;51.100;13.998;2022-09-09T04:48:13;5.73;;;0.90;;
14076;SDS011;7114;51.100;13.998;2022-09-09T04:50:40;4.13;;;0.80;;
14076;SDS011;7114;51.100;13.998;2022-09-09T04:53:08;7.25;;;1.00;;
14076;SDS011;7114;51.100;13.998;2022-09-09T04:55:34;4.32;;;0.90;;
14076;SDS011;7114;51.100;13.998;2022-09-09T04:58:02;4.88;;;1.20;;
14076;SDS011;7114;51.100;13.998;2022-09-09T05:00:30;6.87;;;1.23;;
14076;SDS011;7114;51.100;13.998;2022-09-09T05:02:56;6.03;;;1.10;;
14076;SDS011;7114;51.100;13.998;2022-09-09T05:05:22;5.22;;;1.20;;
14076;SDS011;7114;51.100;13.998;2022-09-09T05:07:48;7.35;;;1.25;;
14076;SDS011;7114;51.100;13.998;2022-09-09T05:10:16;5.38;;;1.10;;
14076;SDS011;7114;51.100;13.998;2022-09-09T05:12:43;6.87;;;1.40;;
14076;SDS011;7114;51.100;13.998;2022-09-09T05:15:09;5.25;;;1.63;;
14076;SDS011;7114;51.100;13.998;2022-09-09T05:17:36;6.20;;;1.27;;
14076;SDS011;7114;51.100;13.998;2022-09-09T05:20:03;7.10;;;1.50;;
14076;SDS011;7114;51.100;13.998;2022-09-09T05:22:30;6.63;;;1.40;;
14076;SDS011;7114;51.100;13.998;2022-09-09T05:24:56;6.00;;;1.40;;
14076;SDS011;7114;51.100;13.998;2022-09-09T05:27:24;5.85;;;1.42;;
14076;SDS011;7114;51.100;13.998;2022-09-09T05:29:50;8.27;;;1.50;;
14076;SDS011;7114;51.100;13.998;2022-09-09T05:32:17;6.95;;;1.40;;
14076;SDS011;7114;51.100;13.998;2022-09-09T05:34:43;5.82;;;1.45;;
14076;SDS011;7114;51.100;13.998;2022-09-09T05:37:09;5.00;;;1.30;;
14076;SDS011;7114;51.100;13.998;2022-09-09T05:39:35;6.43;;;1.40;;
14076;SDS011;7114;51.100;13.998;2022-09-09T05:42:03;4.82;;;1.38;;
14076;SDS011;7114;51.100;13.998;2022-09-09T05:44:31;6.22;;;1.50;;
14076;SDS011;7114;51.100;13.998;2022-09-09T05:46:57;6.00;;;1.08;;
14076;SDS011;7114;51.100;13.998;2022-09-09T05:49:23;5.83;;;1.27;;
14076;SDS011;7114;51.100;13.998;2022-09-09T05:51:50;5.93;;;1.50;;
14076;SDS011;7114;51.100;13.998;2022-09-09T05:54:16;5.25;;;1.35;;
14076;SDS011;7114;51.100;13.998;2022-09-09T05:56:42;4.88;;;1.20;;
14076;SDS011;7114;51.100;13.998;2022-09-09T05:59:09;5.30;;;1.30;;
14076;SDS011;7114;51.100;13.998;2022-09-09T06:01:37;4.90;;;1.37;;
14076;SDS011;7114;51.100;13.998;2022-09-09T06:04:05;5.88;;;1.30;;
14076;SDS011;7114;51.100;13.998;2022-09-09T06:06:32;4.47;;;1.10;;
14076;SDS011;7114;51.100;13.998;2022-09-09T06:09:01;4.88;;;1.40;;
14076;SDS011;7114;51.100;13.998;2022-09-09T06:11:31;4.90;;;1.25;;
14076;SDS011;7114;51.100;13.998;2022-09-09T06:13:59;5.50;;;1.50;;
14076;SDS011;7114;51.100;13.998;2022-09-09T06:16:26;5.63;;;1.35;;
14076;SDS011;7114;51.100;13.998;2022-09-09T06:18:55;4.70;;;1.25;;
14076;SDS011;7114;51.100;13.998;2022-09-09T06:21:23;4.70;;;1.25;;
14076;SDS011;7114;51.100;13.998;2022-09-09T06:23:50;5.18;;;1.10;;
14076;SDS011;7114;51.100;13.998;2022-09-09T06:26:18;4.20;;;1.10;;
14076;SDS011;7114;51.100;13.998;2022-09-09T06:28:45;4.50;;;1.10;;
14076;SDS011;7114;51.100;13.998;2022-09-09T06:31:13;4.63;;;1.20;;
14076;SDS011;7114;51.100;13.998;2022-09-09T06:33:42;4.70;;;1.10;;
14076;SDS011;7114;51.100;13.998;2022-09-09T06:36:11;4.82;;;1.10;;
14076;SDS011;7114;51.100;13.998;2022-09-09T06:38:39;5.77;;;0.80;;
14076;SDS011;7114;51.100;13.998;2022-09-09T06:41:06;4.72;;;1.40;;
14076;SDS011;7114;51.100;13.998;2022-09-09T06:43:33;5.38;;;1.10;;
14076;SDS011;7114;51.100;13.998;2022-09-09T06:46:00;5.22;;;1.10;;
14076;SDS011;7114;51.100;13.998;2022-09-09T06:48:27;5.82;;;1.00;;
14076;SDS011;7114;51.100;13.998;2022-09-09T06:51:00;6.67;;;1.27;;
14076;SDS011;7114;51.100;13.998;2022-09-09T06:53:28;3.75;;;0.70;;
14076;SDS011;7114;51.100;13.998;2022-09-09T06:55:56;4.50;;;0.90;;
14076;SDS011;7114;51.100;13.998;2022-09-09T06:58:22;4.07;;;0.98;;
14076;SDS011;7114;51.100;13.998;2022-09-09T07:00:48;4.97;;;1.00;;
14076;SDS011;7114;51.100;13.998;2022-09-09T07:03:14;4.97;;;0.90;;
14076;SDS011;7114;51.100;13.998;2022-09-09T07:05:41;5.85;;;1.20;;
14076;SDS011;7114;51.100;13.998;2022-09-09T07:08:07;4.88;;;0.93;;
14076;SDS011;7114;51.100;13.998;2022-09-09T07:10:35;4.85;;;0.90;;
14076;SDS011;7114;51.100;13.998;2022-09-09T07:13:01;4.72;;;0.70;;
14076;SDS011;7114;51.100;13.998;2022-09-09T07:15:27;5.27;;;0.80;;
14076;SDS011;7114;51.100;13.998;2022-09-09T07:17:53;4.78;;;0.70;;
14076;SDS011;7114;51.100;13.998;2022-09-09T07:20:20;4.07;;;0.70;;
14076;SDS011;7114;51.100;13.998;2022-09-09T07:22:46;4.40;;;0.70;;
14076;SDS011;7114;51.100;13.998;2022-09-09T07:25:12;5.10;;;1.00;;
14076;SDS011;7114;51.100;13.998;2022-09-09T07:27:43;4.73;;;0.90;;
14076;SDS011;7114;51.100;13.998;2022-09-09T07:30:10;4.60;;;0.90;;
14076;SDS011;7114;51.100;13.998;2022-09-09T07:32:37;4.05;;;0.75;;
14076;SDS011;7114;51.100;13.998;2022-09-09T07:35:03;3.75;;;0.80;;
14076;SDS011;7114;51.100;13.998;2022-09-09T07:37:30;4.43;;;0.90;;
14076;SDS011;7114;51.100;13.998;2022-09-09T07:39:56;5.80;;;0.90;;
14076;SDS011;7114;51.100;13.998;2022-09-09T07:42:23;3.85;;;1.00;;
14076;SDS011;7114;51.100;13.998;2022-09-09T07:44:51;5.30;;;1.00;;
14076;SDS011;7114;51.100;13.998;2022-09-09T07:47:19;4.72;;;0.95;;
14076;SDS011;7114;51.100;13.998;2022-09-09T07:49:46;3.83;;;0.90;;
14076;SDS011;7114;51.100;13.998;2022-09-09T07:52:14;4.70;;;1.10;;
14076;SDS011;7114;51.100;13.998;2022-09-09T07:54:41;4.55;;;1.08;;
14076;SDS011;7114;51.100;13.998;2022-09-09T07:57:07;4.03;;;1.10;;
14076;SDS011;7114;51.100;13.998;2022-09-09T07:59:34;4.50;;;1.10;;
14076;SDS011;7114;51.100;13.998;2022-09-09T08:02:01;5.95;;;1.20;;
14076;SDS011;7114;51.100;13.998;2022-09-09T08:04:28;4.50;;;1.10;;
14076;SDS011;7114;51.100;13.998;2022-09-09T08:06:55;5.32;;;1.30;;
14076;SDS011;7114;51.100;13.998;2022-09-09T08:09:22;4.45;;;1.42;;
14076;SDS011;7114;51.100;13.998;2022-09-09T08:11:50;4.50;;;1.23;;
14076;SDS011;7114;51.100;13.998;2022-09-09T08:14:16;4.20;;;1.20;;
14076;SDS011;7114;51.100;13.998;2022-09-09T08:16:43;4.80;;;1.23;;
14076;SDS011;7114;51.100;13.998;2022-09-09T08:19:12;6.53;;;1.60;;
14076;SDS011;7114;51.100;13.998;2022-09-09T08:21:40;6.00;;;1.48;;
14076;SDS011;7114;51.100;13.998;2022-09-09T08:24:07;4.40;;;1.40;;
14076;SDS011;7114;51.100;13.998;2022-09-09T08:26:36;4.70;;;1.50;;
14076;SDS011;7114;51.100;13.998;2022-09-09T08:29:03;5.07;;;1.50;;
14076;SDS011;7114;51.100;13.998;2022-09-09T08:31:32;5.35;;;1.80;;
14076;SDS011;7114;51.100;13.998;2022-09-09T08:33:59;4.47;;;1.40;;
14076;SDS011;7114;51.100;13.998;2022-09-09T08:36:31;5.10;;;2.13;;
14076;SDS011;7114;51.100;13.998;2022-09-09T08:38:59;4.80;;;1.77;;
14076;SDS011;7114;51.100;13.998;2022-09-09T08:41:29;4.90;;;1.50;;
14076;SDS011;7114;51.100;13.998;2022-09-09T08:44:02;5.10;;;1.75;;
14076;SDS011;7114;51.100;13.998;2022-09-09T08:46:34;5.82;;;1.50;;
14076;SDS011;7114;51.100;13.998;2022-09-09T08:49:06;5.57;;;1.88;;
14076;SDS011;7114;51.100;13.998;2022-09-09T08:51:43;4.68;;;1.23;;
14076;SDS011;7114;51.100;13.998;2022-09-09T08:54:10;4.63;;;1.20;;
14076;SDS011;7114;51.100;13.998;2022-09-09T08:56:36;5.85;;;1.50;;
14076;SDS011;7114;51.100;13.998;2022-09-09T08:59:02;4.88;;;1.25;;
14076;SDS011;7114;51.100;13.998;2022-09-09T09:01:34;5.15;;;1.45;;
14076;SDS011;7114;51.100;13.998;2022-09-09T09:04:06;5.57;;;1.20;;
14076;SDS011;7114;51.100;13.998;2022-09-09T09:06:45;4.70;;;1.30;;
14076;SDS011;7114;51.100;13.998;2022-09-09T09:09:18;6.43;;;1.25;;
14076;SDS011;7114;51.100;13.998;2022-09-09T09:11:48;4.68;;;1.33;;
14076;SDS011;7114;51.100;13.998;2022-09-09T09:14:17;6.43;;;1.33;;
14076;SDS011;7114;51.100;13.998;2022-09-09T09:16:48;5.32;;;1.10;;
14076;SDS011;7114;51.100;13.998;2022-09-09T09:19:17;5.17;;;1.30;;
14076;SDS011;7114;51.100;13.998;2022-09-09T09:21:46;5.07;;;1.48;;
14076;SDS011;7114;51.100;13.998;2022-09-09T09:24:16;4.68;;;1.33;;
14076;SDS011;7114;51.100;13.998;2022-09-09T09:26:44;5.72;;;1.42;;
14076;SDS011;7114;51.100;13.998;2022-09-09T09:29:12;5.28;;;1.60;;
14076;SDS011;7114;51.100;13.998;2022-09-09T09:31:41;6.27;;;1.60;;
14076;SDS011;7114;51.100;13.998;2022-09-09T09:34:08;6.50;;;1.67;;
14076;SDS011;7114;51.100;13.998;2022-09-09T09:36:39;6.18;;;1.50;;
14076;SDS011;7114;51.100;13.998;2022-09-09T09:39:08;5.40;;;1.40;;
14076;SDS011;7114;51.100;13.998;2022-09-09T09:41:36;4.35;;;1.23;;
14076;SDS011;7114;51.100;13.998;2022-09-09T09:44:05;5.47;;;1.40;;
14076;SDS011;7114;51.100;13.998;2022-09-09T09:46:32;4.43;;;1.10;;
14076;SDS011;7114;51.100;13.998;2022-09-09T09:48:59;5.68;;;1.33;;
14076;SDS011;7114;51.100;13.998;2022-09-09T09:51:26;6.25;;;1.20;;
14076;SDS011;7114;51.100;13.998;2022-09-09T09:53:53;5.07;;;1.20;;
14076;SDS011;7114;51.100;13.998;2022-09-09T09:56:27;5.90;;;1.17;;
14076;SDS011;7114;51.100;13.998;2022-09-09T09:58:54;7.20;;;1.02;;
14076;SDS011;7114;51.100;13.998;2022-09-09T10:01:21;5.07;;;1.10;;
14076;SDS011;7114;51.100;13.998;2022-09-09T10:03:50;5.55;;;1.00;;
14076;SDS011;7114;51.100;13.998;2022-09-09T10:06:28;5.43;;;1.30;;
14076;SDS011;7114;51.100;13.998;2022-09-09T10:08:55;4.87;;;0.90;;
14076;SDS011;7114;51.100;13.998;2022-09-09T10:11:25;5.47;;;0.90;;
14076;SDS011;7114;51.100;13.998;2022-09-09T10:14:00;4.95;;;0.90;;
14076;SDS011;7114;51.100;13.998;2022-09-09T10:16:37;7.43;;;0.88;;
14076;SDS011;7114;51.100;13.998;2022-09-09T10:19:12;4.65;;;1.00;;
14076;SDS011;7114;51.100;13.998;2022-09-09T10:21:49;5.10;;;0.83;;
14076;SDS011;7114;51.100;13.998;2022-09-09T10:24:27;5.53;;;0.98;;
14076;SDS011;7114;51.100;13.998;2022-09-09T10:27:04;5.28;;;1.20;;
14076;SDS011;7114;51.100;13.998;2022-09-09T10:32:36;5.70;;;1.40;;
14076;SDS011;7114;51.100;13.998;2022-09-09T10:35:12;4.47;;;1.30;;
14076;SDS011;7114;51.100;13.998;2022-09-09T10:37:51;5.80;;;1.50;;
14076;SDS011;7114;51.100;13.998;2022-09-09T10:40:26;7.07;;;1.70;;
14076;SDS011;7114;51.100;13.998;2022-09-09T10:42:58;5.68;;;1.83;;
14076;SDS011;7114;51.100;13.998;2022-09-09T10:45:32;4.80;;;1.90;;
14076;SDS011;7114;51.100;13.998;2022-09-09T10:48:05;5.70;;;2.40;;
14076;SDS011;7114;51.100;13.998;2022-09-09T10:50:43;5.55;;;2.10;;
14076;SDS011;7114;51.100;13.998;2022-09-09T10:53:18;5.20;;;2.55;;
14076;SDS011;7114;51.100;13.998;2022-09-09T10:55:50;5.50;;;2.42;;
14076;SDS011;7114;51.100;13.998;2022-09-09T10:58:20;5.85;;;2.38;;
14076;SDS011;7114;51.100;13.998;2022-09-09T11:00:49;5.43;;;2.30;;
14076;SDS011;7114;51.100;13.998;2022-09-09T11:03:19;5.70;;;2.20;;
14076;SDS011;7114;51.100;13.998;2022-09-09T11:05:47;5.72;;;2.85;;
14076;SDS011;7114;51.100;13.998;2022-09-09T11:08:17;6.35;;;2.75;;
14076;SDS011;7114;51.100;13.998;2022-09-09T11:10:45;5.32;;;2.60;;
14076;SDS011;7114;51.100;13.998;2022-09-09T11:13:18;5.90;;;2.40;;
14076;SDS011;7114;51.100;13.998;2022-09-09T11:15:49;4.90;;;2.63;;
14076;SDS011;7114;51.100;13.998;2022-09-09T11:18:17;5.32;;;2.80;;
14076;SDS011;7114;51.100;13.998;2022-09-09T11:20:46;5.32;;;2.60;;
14076;SDS011;7114;51.100;13.998;2022-09-09T11:23:15;6.53;;;2.47;;
14076;SDS011;7114;51.100;13.998;2022-09-09T11:25:43;5.50;;;2.43;;
14076;SDS011;7114;51.100;13.998;2022-09-09T11:28:17;4.85;;;2.33;;
14076;SDS011;7114;51.100;13.998;2022-09-09T11:31:02;4.75;;;2.30;;
14076;SDS011;7114;51.100;13.998;2022-09-09T11:33:42;4.85;;;2.03;;
14076;SDS011;7114;51.100;13.998;2022-09-09T11:36:24;5.70;;;2.13;;
14076;SDS011;7114;51.100;13.998;2022-09-09T11:39:00;5.33;;;2.10;;
14076;SDS011;7114;51.100;13.998;2022-09-09T11:41:32;4.78;;;2.13;;
14076;SDS011;7114;51.100;13.998;2022-09-09T11:44:08;5.32;;;1.77;;
14076;SDS011;7114;51.100;13.998;2022-09-09T11:46:36;5.60;;;1.85;;
14076;SDS011;7114;51.100;13.998;2022-09-09T11:49:04;4.70;;;1.75;;
14076;SDS011;7114;51.100;13.998;2022-09-09T11:51:32;7.13;;;1.60;;
14076;SDS011;7114;51.100;13.998;2022-09-09T11:54:01;5.00;;;1.60;;
14076;SDS011;7114;51.100;13.998;2022-09-09T11:56:30;5.53;;;2.13;;
14076;SDS011;7114;51.100;13.998;2022-09-09T11:58:59;5.40;;;1.70;;
14076;SDS011;7114;51.100;13.998;2022-09-09T12:01:30;5.43;;;1.70;;
14076;SDS011;7114;51.100;13.998;2022-09-09T12:04:04;4.70;;;1.97;;
14076;SDS011;7114;51.100;13.998;2022-09-09T12:06:41;5.47;;;1.85;;
14076;SDS011;7114;51.100;13.998;2022-09-09T12:09:13;5.75;;;2.42;;
14076;SDS011;7114;51.100;13.998;2022-09-09T12:11:44;5.30;;;2.10;;
14076;SDS011;7114;51.100;13.998;2022-09-09T12:14:20;5.65;;;2.58;;
14076;SDS011;7114;51.100;13.998;2022-09-09T12:16:47;6.03;;;2.70;;
14076;SDS011;7114;51.100;13.998;2022-09-09T12:19:15;5.68;;;2.60;;
14076;SDS011;7114;51.100;13.998;2022-09-09T12:21:44;5.70;;;3.08;;
14076;SDS011;7114;51.100;13.998;2022-09-09T12:24:15;6.53;;;2.65;;
14076;SDS011;7114;51.100;13.998;2022-09-09T12:26:47;6.00;;;2.75;;
14076;SDS011;7114;51.100;13.998;2022-09-09T12:29:21;6.73;;;2.30;;
14076;SDS011;7114;51.100;13.998;2022-09-09T12:31:51;5.57;;;2.60;;
14076;SDS011;7114;51.100;13.998;2022-09-09T12:34:24;5.78;;;2.70;;
14076;SDS011;7114;51.100;13.998;2022-09-09T12:36:57;5.43;;;3.00;;
14076;SDS011;7114;51.100;13.998;2022-09-09T12:39:28;6.03;;;2.83;;
14076;SDS011;7114;51.100;13.998;2022-09-09T12:41:57;5.33;;;2.90;;
14076;SDS011;7114;51.100;13.998;2022-09-09T12:44:25;5.70;;;3.30;;
14076;SDS011;7114;51.100;13.998;2022-09-09T12:46:52;5.45;;;2.78;;
14076;SDS011;7114;51.100;13.998;2022-09-09T12:49:25;5.75;;;3.45;;
14076;SDS011;7114;51.100;13.998;2022-09-09T12:51:53;6.10;;;3.00;;
14076;SDS011;7114;51.100;13.998;2022-09-09T12:54:22;6.30;;;3.17;;
14076;SDS011;7114;51.100;13.998;2022-09-09T12:56:48;5.50;;;2.95;;
14076;SDS011;7114;51.100;13.998;2022-09-09T12:59:21;5.45;;;3.30;;
14076;SDS011;7114;51.100;13.998;2022-09-09T13:01:55;5.65;;;3.20;;
14076;SDS011;7114;51.100;13.998;2022-09-09T13:04:22;6.68;;;3.28;;
14076;SDS011;7114;51.100;13.998;2022-09-09T13:06:48;6.13;;;3.10;;
14076;SDS011;7114;51.100;13.998;2022-09-09T13:09:15;5.68;;;3.22;;
14076;SDS011;7114;51.100;13.998;2022-09-09T13:11:41;5.20;;;2.95;;
14076;SDS011;7114;51.100;13.998;2022-09-09T13:14:12;5.35;;;2.80;;
14076;SDS011;7114;51.100;13.998;2022-09-09T13:16:53;5.80;;;2.65;;
14076;SDS011;7114;51.100;13.998;2022-09-09T13:19:22;5.60;;;2.60;;
14076;SDS011;7114;51.100;13.998;2022-09-09T13:21:50;5.90;;;3.30;;
14076;SDS011;7114;51.100;13.998;2022-09-09T13:24:24;5.38;;;3.30;;
14076;SDS011;7114;51.100;13.998;2022-09-09T13:26:54;4.80;;;2.28;;
14076;SDS011;7114;51.100;13.998;2022-09-09T13:29:22;5.03;;;2.70;;
14076;SDS011;7114;51.100;13.998;2022-09-09T13:31:48;5.63;;;2.80;;
14076;SDS011;7114;51.100;13.998;2022-09-09T13:34:26;6.13;;;3.03;;
14076;SDS011;7114;51.100;13.998;2022-09-09T13:36:59;5.40;;;2.65;;
14076;SDS011;7114;51.100;13.998;2022-09-09T13:39:28;6.05;;;3.45;;
14076;SDS011;7114;51.100;13.998;2022-09-09T13:41:54;5.45;;;2.70;;
14076;SDS011;7114;51.100;13.998;2022-09-09T13:44:22;5.43;;;2.73;;
14076;SDS011;7114;51.100;13.998;2022-09-09T13:46:59;5.35;;;2.80;;
14076;SDS011;7114;51.100;13.998;2022-09-09T13:49:28;5.72;;;3.05;;
14076;SDS011;7114;51.100;13.998;2022-09-09T13:52:03;6.47;;;3.08;;
14076;SDS011;7114;51.100;13.998;2022-09-09T13:54:30;5.50;;;3.08;;
14076;SDS011;7114;51.100;13.998;2022-09-09T13:56:56;5.57;;;2.83;;
14076;SDS011;7114;51.100;13.998;2022-09-09T13:59:22;5.88;;;3.00;;
14076;SDS011;7114;51.100;13.998;2022-09-09T14:01:50;5.25;;;3.05;;
14076;SDS011;7114;51.100;13.998;2022-09-09T14:04:17;4.97;;;2.58;;
14076;SDS011;7114;51.100;13.998;2022-09-09T14:06:46;5.40;;;2.90;;
14076;SDS011;7114;51.100;13.998;2022-09-09T14:09:13;6.33;;;2.73;;
14076;SDS011;7114;51.100;13.998;2022-09-09T14:11:40;5.35;;;2.97;;
14076;SDS011;7114;51.100;13.998;2022-09-09T14:14:07;6.38;;;2.83;;
14076;SDS011;7114;51.100;13.998;2022-09-09T14:16:34;5.55;;;2.40;;
14076;SDS011;7114;51.100;13.998;2022-09-09T14:19:00;5.03;;;2.40;;
14076;SDS011;7114;51.100;13.998;2022-09-09T14:21:27;5.13;;;2.20;;
14076;SDS011;7114;51.100;13.998;2022-09-09T14:23:54;4.70;;;2.00;;
14076;SDS011;7114;51.100;13.998;2022-09-09T14:26:23;5.60;;;2.08;;
14076;SDS011;7114;51.100;13.998;2022-09-09T14:28:49;5.25;;;2.10;;
14076;SDS011;7114;51.100;13.998;2022-09-09T14:31:16;4.60;;;1.98;;
14076;SDS011;7114;51.100;13.998;2022-09-09T14:33:43;4.63;;;1.80;;
14076;SDS011;7114;51.100;13.998;2022-09-09T14:36:09;5.05;;;1.90;;
14076;SDS011;7114;51.100;13.998;2022-09-09T14:38:37;5.00;;;1.73;;
14076;SDS011;7114;51.100;13.998;2022-09-09T14:41:05;4.60;;;1.58;;
14076;SDS011;7114;51.100;13.998;2022-09-09T14:43:32;5.57;;;1.77;;
14076;SDS011;7114;51.100;13.998;2022-09-09T14:46:04;5.27;;;1.60;;
14076;SDS011;7114;51.100;13.998;2022-09-09T14:48:31;5.22;;;1.58;;
14076;SDS011;7114;51.100;13.998;2022-09-09T14:51:03;4.97;;;1.48;;
14076;SDS011;7114;51.100;13.998;2022-09-09T14:53:31;5.95;;;1.73;;
14076;SDS011;7114;51.100;13.998;2022-09-09T14:56:02;5.45;;;1.73;;
14076;SDS011;7114;51.100;13.998;2022-09-09T14:58:31;5.23;;;1.70;;
14076;SDS011;7114;51.100;13.998;2022-09-09T15:01:01;5.32;;;1.77;;
14076;SDS011;7114;51.100;13.998;2022-09-09T15:03:30;5.07;;;1.90;;